Private Wetterstation Wechselburg
Wetterdaten: Woche 06.03.23 - 12.03.23 (KW10)
Datum Zeit Temp. +2m Bodentemp. Temp.+5cm Temp. Wind Windchill X Diff Temp. Feuchte +2m Feuchte +5cm Luftdruck Regen Wind Richtung Sonnenschein Taupunkt Windchill Windben
06.03.2023 00:00 1,4 C 5,5 C -39,6 C 1,3 C 1,1 C 0,0 C 83 % 76 % 1009,5 hPa 0,0 l/m 1,8 km/h (1 Bft) O-SO 0,00 h -1,1 C 1,1 C 2,8 km/h (1 Bft)
06.03.2023 01:00 1,5 C 5,5 C -39,6 C 1,3 C 1,0 C 0,0 C 82 % 76 % 1008,8 hPa 0,0 l/m 0,6 km/h (0 Bft) N 0,00 h -1,2 C 1,0 C 1,1 km/h (0 Bft)
06.03.2023 02:00 1,3 C 5,5 C -39,6 C 1,2 C 0,8 C 0,0 C 83 % 76 % 1008,0 hPa 0,0 l/m 0,6 km/h (0 Bft) SO 0,00 h -1,2 C 0,8 C 1,1 km/h (1 Bft)
06.03.2023 03:00 1,2 C 5,5 C -39,6 C 1,1 C 0,9 C 0,0 C 83 % 75 % 1007,4 hPa 0,0 l/m 0,7 km/h (0 Bft) N 0,00 h -1,3 C 0,9 C 2,4 km/h (1 Bft)
06.03.2023 04:00 1,2 C 5,4 C -36,3 C 1,0 C 0,6 C 0,0 C 82 % 69 % 1007,0 hPa 0,0 l/m 0,8 km/h (0 Bft) S-SW 0,00 h -1,5 C 0,6 C 1,6 km/h (1 Bft)
06.03.2023 05:00 0,7 C 5,4 C -39,6 C 0,4 C -0,2 C 0,0 C 82 % 77 % 1006,5 hPa 0,0 l/m 1,7 km/h (1 Bft) SO 0,00 h -2,0 C -0,2 C 3,4 km/h (1 Bft)
06.03.2023 06:00 0,5 C 5,4 C -39,6 C 0,3 C -0,3 C 0,0 C 83 % 78 % 1006,2 hPa 0,0 l/m 1,4 km/h (1 Bft) S-SO 0,00 h -2,1 C -0,3 C 2,2 km/h (1 Bft)
06.03.2023 07:00 0,4 C 5,4 C -39,6 C 0,2 C -0,1 C 0,0 C 83 % 78 % 1006,1 hPa 0,0 l/m 0,3 km/h (0 Bft) N 0,00 h -2,1 C -0,1 C 0,3 km/h (0 Bft)
06.03.2023 08:00 1,0 C 5,3 C -21,3 C 1,7 C 1,7 C 0,6 C 83 % 41 % 1005,8 hPa 0,0 l/m 0,2 km/h (0 Bft) S-SO 0,00 h -1,5 C 1,7 C 0,3 km/h (0 Bft)
06.03.2023 09:00 2,2 C 5,3 C -39,6 C 3,6 C 3,6 C 1,4 C 82 % 73 % 1006,0 hPa 0,0 l/m 1,5 km/h (1 Bft) S 0,00 h -0,6 C 3,6 C 3,5 km/h (1 Bft)
06.03.2023 10:00 2,6 C 5,3 C -39,6 C 3,3 C 3,3 C 0,6 C 81 % 70 % 1005,8 hPa 0,0 l/m 4,1 km/h (1 Bft) SW 0,00 h -0,3 C 3,0 C 6,2 km/h (2 Bft)
06.03.2023 11:00 3,2 C 5,4 C -39,6 C 4,4 C 4,4 C 1,3 C 82 % 69 % 1005,9 hPa 0,0 l/m 4,1 km/h (1 Bft) S-SW 0,00 h 0,4 C 4,2 C 6,2 km/h (2 Bft)
06.03.2023 12:00 3,1 C 5,5 C -15,8 C 3,4 C 3,3 C 0,3 C 83 % 28 % 1005,5 hPa 0,0 l/m 4,4 km/h (1 Bft) SW 0,00 h 0,5 C 2,7 C 6,2 km/h (2 Bft)
06.03.2023 13:00 3,2 C 5,6 C -39,6 C 4,6 C 4,6 C 1,4 C 83 % 72 % 1005,2 hPa 0,0 l/m 3,5 km/h (1 Bft) SW 0,00 h 0,6 C 4,5 C 5,8 km/h (2 Bft)
06.03.2023 14:00 3,9 C 5,4 C -39,6 C 6,3 C 6,3 C 2,4 C 82 % 73 % 1004,8 hPa 0,0 l/m 4,2 km/h (1 Bft) SW 0,00 h 1,2 C 6,0 C 6,2 km/h (2 Bft)
06.03.2023 15:00 4,5 C 5,4 C -39,6 C 5,7 C 5,7 C 1,2 C 77 % 67 % 1004,7 hPa 0,0 l/m 4,6 km/h (1 Bft) SW 0,00 h 0,9 C 5,1 C 5,8 km/h (2 Bft)
06.03.2023 16:00 1,8 C 5,9 C -29,7 C 1,7 C 1,4 C 0,0 C 82 % 54 % 1004,8 hPa 0,0 l/m 1,5 km/h (1 Bft) W-SW 0,00 h -1,0 C 1,4 C 1,8 km/h (1 Bft)
06.03.2023 17:00 1,0 C 5,8 C -39,6 C 0,9 C 0,6 C 0,0 C 86 % 77 % 1005,1 hPa 0,0 l/m 0,0 km/h (0 Bft) N 0,00 h -1,0 C 0,6 C 0,0 km/h (0 Bft)
06.03.2023 18:00 1,1 C 5,8 C -17,6 C 0,9 C 0,5 C 0,0 C 88 % 35 % 1005,3 hPa 0,0 l/m 0,0 km/h (0 Bft) N 0,00 h -0,7 C 0,5 C 0,2 km/h (0 Bft)
06.03.2023 19:00 1,1 C 5,8 C -39,6 C 0,9 C 0,5 C 0,0 C 88 % 80 % 1005,5 hPa 0,0 l/m 0,0 km/h (0 Bft) N 0,00 h -0,7 C 0,5 C 0,0 km/h (0 Bft)
06.03.2023 20:00 1,2 C 5,9 C -39,6 C 1,0 C 0,7 C 0,0 C 89 % 81 % 1005,8 hPa 0,7 l/m 0,7 km/h (0 Bft) S-SO 0,00 h -0,4 C 0,7 C 1,4 km/h (1 Bft)
06.03.2023 21:00 1,1 C 5,9 C -39,6 C 0,8 C 0,2 C 0,0 C 89 % 81 % 1005,4 hPa 0,0 l/m 2,7 km/h (1 Bft) S 0,00 h -0,5 C 0,2 C 3,5 km/h (1 Bft)
06.03.2023 22:00 0,9 C 5,9 C -39,6 C 0,6 C 0,0 C 0,0 C 89 % 81 % 1005,0 hPa 0,0 l/m 2,0 km/h (1 Bft) W-SW 0,00 h -0,7 C 0,0 C 2,0 km/h (1 Bft)
06.03.2023 23:00 0,9 C 5,9 C -39,6 C 0,6 C -0,0 C 0,0 C 89 % 81 % 1004,7 hPa 0,0 l/m 2,6 km/h (1 Bft) S-SO 0,00 h -0,7 C -0,0 C 4,3 km/h (1 Bft)
07.03.2023 00:00 1,2 C 5,8 C -39,6 C 0,7 C -0,3 C 0,0 C 89 % 82 % 1003,8 hPa 0,0 l/m 3,3 km/h (1 Bft) S-SO 0,00 h -0,4 C -0,9 C 5,4 km/h (1 Bft)
07.03.2023 01:00 1,6 C 5,7 C -39,6 C 0,9 C -0,5 C 0,0 C 87 % 81 % 1003,0 hPa 0,0 l/m 4,6 km/h (1 Bft) SO 0,00 h -0,2 C -1,2 C 7,1 km/h (2 Bft)
07.03.2023 02:00 1,6 C 5,6 C -39,6 C 1,0 C -0,2 C 0,0 C 86 % 81 % 1002,4 hPa 0,0 l/m 4,1 km/h (1 Bft) S 0,00 h -0,5 C -0,6 C 5,8 km/h (2 Bft)
07.03.2023 03:00 1,6 C 5,5 C -39,6 C 1,2 C 0,2 C 0,0 C 85 % 81 % 1001,5 hPa 0,0 l/m 4,0 km/h (1 Bft) S 0,00 h -0,6 C -0,2 C 5,1 km/h (1 Bft)
07.03.2023 04:00 2,0 C 5,4 C -39,6 C 1,7 C 1,2 C 0,0 C 82 % 79 % 1000,6 hPa 0,0 l/m 3,1 km/h (1 Bft) S 0,00 h -0,7 C 1,2 C 7,2 km/h (2 Bft)
07.03.2023 05:00 2,0 C 5,4 C -39,6 C 1,8 C 1,5 C 0,0 C 80 % 76 % 999,9 hPa 0,0 l/m 2,7 km/h (1 Bft) SO 0,00 h -1,1 C 1,5 C 7,5 km/h (2 Bft)
07.03.2023 06:00 2,1 C 5,3 C -39,6 C 1,9 C 1,6 C 0,0 C 78 % 75 % 999,2 hPa 0,0 l/m 3,1 km/h (1 Bft) W-SW 0,00 h -1,3 C 1,6 C 5,1 km/h (1 Bft)
07.03.2023 07:00 2,3 C 5,3 C -39,6 C 2,1 C 1,6 C 0,0 C 79 % 74 % 999,1 hPa 0,0 l/m 3,9 km/h (1 Bft) S-SO 0,00 h -1,0 C 1,4 C 9,9 km/h (2 Bft)
07.03.2023 08:00 2,3 C 5,3 C -39,6 C 2,3 C 2,2 C 0,1 C 82 % 75 % 999,0 hPa 0,0 l/m 3,6 km/h (1 Bft) SO 0,00 h -0,5 C 2,2 C 6,8 km/h (2 Bft)
07.03.2023 09:00 3,3 C 5,2 C -39,6 C 3,7 C 3,7 C 0,5 C 81 % 71 % 998,8 hPa 0,0 l/m 4,6 km/h (1 Bft) S 0,00 h 0,3 C 3,1 C 7,1 km/h (2 Bft)
07.03.2023 10:00 4,4 C 5,2 C -39,6 C 4,9 C 4,9 C 0,6 C 78 % 66 % 998,8 hPa 0,0 l/m 6,2 km/h (2 Bft) SO 0,00 h 0,8 C 3,6 C 9,8 km/h (2 Bft)
07.03.2023 11:00 5,2 C 5,3 C -39,6 C 6,0 C 5,8 C 0,8 C 75 % 61 % 998,3 hPa 0,0 l/m 7,8 km/h (2 Bft) SW 0,00 h 1,1 C 4,1 C 13,3 km/h (3 Bft)
07.03.2023 12:00 5,8 C 5,3 C -39,6 C 6,3 C 5,9 C 0,5 C 71 % 57 % 998,1 hPa 0,0 l/m 9,5 km/h (2 Bft) S 0,00 h 1,0 C 3,8 C 17,1 km/h (3 Bft)
07.03.2023 13:00 6,7 C 5,4 C -39,6 C 8,2 C 7,8 C 1,5 C 67 % 52 % 997,3 hPa 0,0 l/m 10,8 km/h (2 Bft) SW 0,00 h 1,1 C 5,8 C 18,3 km/h (3 Bft)
07.03.2023 14:00 6,7 C 5,5 C -39,6 C 7,1 C 6,4 C 0,4 C 66 % 50 % 997,5 hPa 0,0 l/m 10,5 km/h (2 Bft) SW 0,00 h 0,7 C 4,2 C 16,4 km/h (3 Bft)
07.03.2023 15:00 6,5 C 5,6 C -39,6 C 6,4 C 5,6 C 0,0 C 67 % 53 % 997,2 hPa 0,0 l/m 9,6 km/h (2 Bft) S 0,00 h 0,7 C 3,5 C 12,7 km/h (3 Bft)
07.03.2023 16:00 6,4 C 5,7 C -39,6 C 6,2 C 5,4 C 0,0 C 67 % 55 % 997,1 hPa 0,0 l/m 8,4 km/h (2 Bft) SW 0,00 h 0,7 C 3,5 C 11,3 km/h (2 Bft)
07.03.2023 17:00 6,1 C 5,8 C -39,6 C 5,8 C 4,7 C 0,0 C 67 % 55 % 997,2 hPa 0,0 l/m 8,3 km/h (2 Bft) SW 0,00 h 0,3 C 2,7 C 12,9 km/h (3 Bft)
07.03.2023 18:00 4,8 C 6,0 C -39,6 C 4,5 C 3,8 C 0,0 C 71 % 62 % 998,0 hPa 0,0 l/m 4,6 km/h (1 Bft) SW 0,00 h -0,0 C 2,8 C 5,1 km/h (1 Bft)
07.03.2023 19:00 2,1 C 6,4 C -39,6 C 1,8 C 1,1 C 0,0 C 80 % 73 % 998,8 hPa 0,0 l/m 0,1 km/h (0 Bft) N 0,00 h -1,0 C 1,1 C 0,0 km/h (0 Bft)
07.03.2023 20:00 1,0 C 6,4 C -39,6 C 0,7 C 0,4 C 0,0 C 84 % 78 % 998,9 hPa 0,0 l/m 0,0 km/h (0 Bft) N 0,00 h -1,5 C 0,4 C 0,3 km/h (0 Bft)
07.03.2023 21:00 0,7 C 6,4 C -39,6 C 0,5 C 0,2 C 0,0 C 86 % 80 % 999,0 hPa 0,0 l/m 0,0 km/h (0 Bft) N 0,00 h -1,4 C 0,2 C 0,0 km/h (0 Bft)
07.03.2023 22:00 0,5 C 6,4 C -39,6 C 0,4 C 0,1 C 0,0 C 87 % 81 % 999,4 hPa 0,0 l/m 0,0 km/h (0 Bft) N 0,00 h -1,4 C 0,1 C 0,0 km/h (0 Bft)
07.03.2023 23:00 0,5 C 6,3 C -39,6 C 0,4 C 0,1 C 0,0 C 88 % 81 % 1000,1 hPa 0,0 l/m 0,3 km/h (0 Bft) N 0,00 h -1,3 C 0,1 C 0,7 km/h (0 Bft)
08.03.2023 00:00 0,4 C 6,2 C -39,6 C 0,3 C 0,1 C 0,0 C 88 % 81 % 1000,3 hPa 0,0 l/m 0,2 km/h (0 Bft) N 0,00 h -1,3 C 0,1 C 0,6 km/h (0 Bft)
08.03.2023 01:00 0,0 C 6,2 C -39,6 C -0,0 C -0,1 C 0,0 C 89 % 81 % 1000,8 hPa 0,0 l/m 0,0 km/h (0 Bft) N 0,00 h -1,6 C -0,1 C 0,0 km/h (0 Bft)
08.03.2023 02:00 -0,2 C 6,1 C -39,6 C -0,2 C -0,2 C 0,0 C 89 % 81 % 1001,0 hPa 0,0 l/m 0,0 km/h (0 Bft) N 0,00 h -1,8 C -0,2 C 0,0 km/h (0 Bft)
08.03.2023 03:00 -0,2 C 6,1 C -39,6 C -0,2 C -0,2 C 0,0 C 89 % 81 % 1001,0 hPa 0,0 l/m 0,0 km/h (0 Bft) N 0,00 h -1,8 C -0,2 C 0,0 km/h (0 Bft)
08.03.2023 04:00 -0,1 C 6,0 C -39,6 C -0,1 C -0,2 C 0,0 C 89 % 81 % 1001,0 hPa 0,0 l/m 0,0 km/h (0 Bft) N 0,00 h -1,7 C -0,2 C 0,0 km/h (0 Bft)
08.03.2023 05:00 -0,1 C 5,9 C -39,6 C -0,1 C -0,2 C 0,0 C 89 % 81 % 1001,3 hPa 0,0 l/m 0,0 km/h (0 Bft) N 0,00 h -1,7 C -0,2 C 0,0 km/h (0 Bft)
08.03.2023 06:00 -0,1 C 5,9 C -39,6 C -0,1 C -0,1 C 0,0 C 89 % 81 % 1001,0 hPa 0,0 l/m 0,0 km/h (0 Bft) N 0,00 h -1,7 C -0,1 C 0,0 km/h (0 Bft)
08.03.2023 07:00 -0,1 C 5,9 C -39,6 C 0,2 C 0,2 C 0,3 C 89 % 81 % 1001,0 hPa 0,0 l/m 0,0 km/h (0 Bft) N 0,00 h -1,7 C 0,2 C 0,0 km/h (0 Bft)
08.03.2023 08:00 0,2 C 5,8 C -39,6 C 1,0 C 1,0 C 0,8 C 89 % 81 % 1001,2 hPa 0,0 l/m 0,0 km/h (0 Bft) N 0,00 h -1,4 C 1,0 C 0,0 km/h (0 Bft)
08.03.2023 09:00 0,3 C 5,8 C -39,6 C 1,9 C 1,9 C 1,6 C 89 % 80 % 1000,8 hPa 0,7 l/m 0,0 km/h (0 Bft) N 0,00 h -1,3 C 1,9 C 0,0 km/h (0 Bft)
08.03.2023 10:00 0,4 C 5,9 C -39,6 C 2,0 C 2,0 C 1,6 C 89 % 80 % 1000,4 hPa 0,7 l/m 0,0 km/h (0 Bft) N 0,00 h -1,2 C 2,0 C 0,0 km/h (0 Bft)
08.03.2023 11:00 0,7 C 5,9 C -39,6 C 2,2 C 2,2 C 1,5 C 89 % 80 % 999,6 hPa 0,0 l/m 0,0 km/h (0 Bft) N 0,00 h -0,9 C 2,2 C 0,0 km/h (0 Bft)
08.03.2023 12:00 0,9 C 5,9 C -39,6 C 2,5 C 2,5 C 1,6 C 89 % 80 % 998,4 hPa 0,0 l/m 0,0 km/h (0 Bft) N 0,00 h -0,7 C 2,5 C 0,0 km/h (0 Bft)
08.03.2023 13:00 1,6 C 6,0 C -39,6 C 3,4 C 3,4 C 1,8 C 89 % 80 % 997,6 hPa 2,7 l/m 0,4 km/h (0 Bft) S-SO 0,00 h -0,0 C 3,4 C 1,5 km/h (1 Bft)
08.03.2023 14:00 2,1 C 6,0 C -39,6 C 3,6 C 3,6 C 1,4 C 89 % 80 % 996,9 hPa 4,1 l/m 0,3 km/h (0 Bft) N 0,00 h 0,5 C 3,6 C 0,5 km/h (0 Bft)
08.03.2023 15:00 1,9 C 6,0 C -39,6 C 2,5 C 2,5 C 0,6 C 89 % 80 % 996,3 hPa 2,1 l/m 1,1 km/h (1 Bft) O-NO 0,00 h 0,3 C 2,5 C 1,3 km/h (1 Bft)
08.03.2023 16:00 1,7 C 6,0 C -39,6 C 2,0 C 2,0 C 0,3 C 89 % 81 % 995,8 hPa 0,7 l/m 0,0 km/h (0 Bft) N 0,00 h 0,1 C 2,0 C 0,0 km/h (0 Bft)
08.03.2023 17:00 1,6 C 6,1 C -39,6 C 1,8 C 1,8 C 0,2 C 89 % 81 % 995,7 hPa 0,0 l/m 0,0 km/h (0 Bft) N 0,00 h -0,0 C 1,8 C 0,0 km/h (0 Bft)
08.03.2023 18:00 1,3 C 6,1 C -39,6 C 1,3 C 1,3 C 0,0 C 89 % 81 % 995,0 hPa 0,0 l/m 0,0 km/h (0 Bft) N 0,00 h -0,3 C 1,3 C 0,0 km/h (0 Bft)
08.03.2023 19:00 1,2 C 6,2 C -39,6 C 1,2 C 1,2 C 0,1 C 89 % 81 % 995,2 hPa 0,0 l/m 0,0 km/h (0 Bft) N 0,00 h -0,5 C 1,2 C 0,0 km/h (0 Bft)
08.03.2023 20:00 1,1 C 6,2 C -39,6 C 1,3 C 1,3 C 0,2 C 89 % 80 % 995,4 hPa 0,7 l/m 0,0 km/h (0 Bft) N 0,00 h -0,5 C 1,3 C 0,0 km/h (0 Bft)
08.03.2023 21:00 1,1 C 6,2 C -39,6 C 1,3 C 1,3 C 0,2 C 89 % 80 % 995,7 hPa 0,7 l/m 0,0 km/h (0 Bft) N 0,00 h -0,5 C 1,3 C 0,0 km/h (0 Bft)
08.03.2023 22:00 0,9 C 6,2 C -39,6 C 1,3 C 1,3 C 0,4 C 89 % 79 % 995,3 hPa 0,0 l/m 0,0 km/h (0 Bft) N 0,00 h -0,7 C 1,3 C 0,0 km/h (0 Bft)
08.03.2023 23:00 0,8 C 6,2 C -39,6 C 1,2 C 1,2 C 0,4 C 89 % 80 % 994,5 hPa 0,0 l/m 0,0 km/h (0 Bft) N 0,00 h -0,8 C 1,2 C 0,0 km/h (0 Bft)
09.03.2023 00:00 0,7 C 6,2 C -39,6 C 1,2 C 1,2 C 0,5 C 89 % 80 % 994,2 hPa 0,0 l/m 0,0 km/h (0 Bft) N 0,00 h -0,9 C 1,2 C 0,0 km/h (0 Bft)
09.03.2023 01:00 0,6 C 6,2 C -39,6 C 1,1 C 1,1 C 0,6 C 89 % 79 % 993,7 hPa 0,0 l/m 0,0 km/h (0 Bft) N 0,00 h -1,0 C 1,1 C 0,0 km/h (0 Bft)
09.03.2023 02:00 0,4 C 6,2 C -39,6 C 1,2 C 1,2 C 0,8 C 89 % 79 % 993,0 hPa 0,0 l/m 0,1 km/h (0 Bft) N 0,00 h -1,2 C 1,2 C 0,0 km/h (0 Bft)
09.03.2023 03:00 0,4 C 6,2 C -39,6 C 1,3 C 1,3 C 0,9 C 89 % 79 % 992,0 hPa 0,0 l/m 0,0 km/h (0 Bft) N 0,00 h -1,2 C 1,3 C 0,0 km/h (0 Bft)
09.03.2023 04:00 0,4 C 6,3 C -39,6 C 1,3 C 1,3 C 1,0 C 89 % 80 % 991,3 hPa 2,7 l/m 0,5 km/h (0 Bft) NO 0,00 h -1,2 C 1,3 C 0,7 km/h (0 Bft)
09.03.2023 05:00 0,3 C 6,7 C -39,6 C 1,2 C 1,2 C 0,9 C 89 % 80 % 991,6 hPa 0,7 l/m 0,3 km/h (0 Bft) O-NO 0,00 h -1,3 C 1,2 C 0,3 km/h (0 Bft)
09.03.2023 06:00 0,3 C 6,7 C -39,6 C 1,4 C 1,4 C 1,1 C 89 % 80 % 992,0 hPa 0,7 l/m 0,0 km/h (0 Bft) N 0,17 h -1,3 C 1,4 C 0,0 km/h (0 Bft)
09.03.2023 07:00 0,4 C 6,7 C -39,6 C 1,7 C 1,7 C 1,3 C 89 % 79 % 992,8 hPa 0,0 l/m 0,2 km/h (0 Bft) W 0,67 h -1,2 C 1,7 C 1,3 km/h (1 Bft)
09.03.2023 08:00 -0,0 C 6,7 C -39,6 C 1,2 C 1,2 C 1,2 C 89 % 79 % 995,3 hPa 0,0 l/m 1,9 km/h (1 Bft) W-SW 0,00 h -1,6 C 1,2 C 3,8 km/h (1 Bft)
09.03.2023 09:00 -0,0 C 6,7 C -39,6 C 1,1 C 1,1 C 1,1 C 89 % 79 % 997,1 hPa 0,0 l/m 3,8 km/h (1 Bft) W-SW 0,00 h -1,6 C 0,8 C 5,5 km/h (1 Bft)
09.03.2023 10:00 0,5 C 6,7 C -39,6 C 2,5 C 2,5 C 2,1 C 89 % 79 % 998,1 hPa 0,0 l/m 4,1 km/h (1 Bft) SW 0,00 h -1,1 C 2,3 C 5,4 km/h (1 Bft)
09.03.2023 11:00 1,5 C 6,7 C -39,6 C 5,0 C 5,0 C 3,5 C 89 % 80 % 998,3 hPa 0,0 l/m 1,8 km/h (1 Bft) SW 0,67 h -0,1 C 5,0 C 2,4 km/h (1 Bft)
09.03.2023 12:00 2,8 C 6,8 C -39,6 C 6,2 C 6,2 C 3,3 C 89 % 80 % 998,9 hPa 0,0 l/m 0,5 km/h (0 Bft) S-SW 0,75 h 1,2 C 6,2 C 1,2 km/h (1 Bft)
09.03.2023 13:00 4,0 C 6,9 C -39,6 C 7,0 C 7,0 C 3,0 C 90 % 80 % 999,2 hPa 0,7 l/m 0,5 km/h (0 Bft) S-SW 0,08 h 2,5 C 7,0 C 0,5 km/h (0 Bft)
09.03.2023 14:00 4,6 C 7,0 C -39,6 C 7,1 C 7,1 C 2,5 C 89 % 81 % 999,4 hPa 1,4 l/m 0,1 km/h (0 Bft) N 0,00 h 3,0 C 7,1 C 0,0 km/h (0 Bft)
09.03.2023 15:00 4,4 C 7,1 C -39,6 C 6,6 C 6,6 C 2,2 C 89 % 81 % 999,8 hPa 0,0 l/m 0,0 km/h (0 Bft) N 0,00 h 2,7 C 6,6 C 0,0 km/h (0 Bft)
09.03.2023 16:00 4,0 C 7,2 C -39,6 C 6,0 C 6,0 C 2,0 C 89 % 81 % 999,6 hPa 0,0 l/m 0,0 km/h (0 Bft) N 0,25 h 2,3 C 6,0 C 0,0 km/h (0 Bft)
09.03.2023 17:00 3,7 C 7,3 C -39,6 C 5,5 C 5,5 C 1,8 C 89 % 79 % 999,9 hPa 0,7 l/m 0,0 km/h (0 Bft) N 0,92 h 2,1 C 5,5 C 0,0 km/h (0 Bft)
09.03.2023 18:00 3,3 C 7,5 C -39,6 C 5,0 C 5,0 C 1,7 C 89 % 79 % 999,8 hPa 0,0 l/m 0,3 km/h (0 Bft) N 0,00 h 1,6 C 5,0 C 0,5 km/h (0 Bft)
09.03.2023 19:00 3,1 C 7,6 C -39,6 C 4,7 C 4,7 C 1,6 C 89 % 79 % 999,4 hPa 0,0 l/m 0,7 km/h (0 Bft) NO 0,00 h 1,5 C 4,7 C 0,8 km/h (0 Bft)
09.03.2023 20:00 3,2 C 7,7 C -39,6 C 4,6 C 4,6 C 1,3 C 89 % 79 % 998,9 hPa 0,0 l/m 1,0 km/h (0 Bft) W-SW 0,00 h 1,6 C 4,6 C 2,2 km/h (1 Bft)
09.03.2023 21:00 4,3 C 7,8 C -39,6 C 5,8 C 5,8 C 1,6 C 89 % 79 % 999,0 hPa 0,0 l/m 1,0 km/h (0 Bft) SW 0,00 h 2,6 C 5,8 C 1,0 km/h (0 Bft)
09.03.2023 22:00 5,1 C 7,8 C -39,6 C 6,0 C 6,0 C 0,9 C 90 % 79 % 998,5 hPa 0,0 l/m 3,9 km/h (1 Bft) S 0,00 h 3,6 C 5,3 C 6,1 km/h (2 Bft)
09.03.2023 23:00 6,7 C 7,7 C -39,6 C 7,3 C 7,1 C 0,7 C 89 % 79 % 997,4 hPa 0,0 l/m 7,9 km/h (2 Bft) S 0,00 h 5,0 C 5,6 C 11,0 km/h (2 Bft)
10.03.2023 00:00 7,7 C 7,5 C -39,6 C 7,6 C 7,3 C 0,1 C 88 % 79 % 996,5 hPa 0,0 l/m 7,4 km/h (2 Bft) S 0,00 h 5,8 C 6,0 C 10,6 km/h (2 Bft)
10.03.2023 01:00 8,9 C 7,4 C -39,6 C 8,7 C 8,3 C 0,0 C 86 % 79 % 995,4 hPa 0,0 l/m 6,5 km/h (2 Bft) S 0,00 h 6,6 C 7,4 C 9,7 km/h (2 Bft)
10.03.2023 02:00 9,5 C 7,4 C -39,6 C 9,7 C 9,7 C 0,3 C 80 % 79 % 994,3 hPa 0,0 l/m 4,3 km/h (1 Bft) S-SO 0,00 h 6,3 C 9,4 C 7,3 km/h (2 Bft)
10.03.2023 03:00 10,1 C 7,5 C -39,6 C 9,9 C 9,5 C 0,0 C 77 % 79 % 993,6 hPa 0,0 l/m 5,6 km/h (1 Bft) S 0,00 h 6,2 C 9,1 C 8,5 km/h (2 Bft)
10.03.2023 04:00 10,3 C 7,6 C -39,6 C 10,3 C 10,2 C 0,0 C 75 % 79 % 992,3 hPa 0,0 l/m 4,8 km/h (1 Bft) S 0,00 h 6,1 C 10,1 C 6,6 km/h (2 Bft)
10.03.2023 05:00 10,2 C 7,7 C -39,6 C 10,1 C 9,8 C 0,0 C 75 % 79 % 991,6 hPa 0,0 l/m 4,3 km/h (1 Bft) S 0,00 h 6,0 C 9,7 C 8,6 km/h (2 Bft)
10.03.2023 06:00 10,0 C 7,9 C -39,6 C 9,9 C 9,7 C 0,0 C 76 % 79 % 991,1 hPa 0,0 l/m 4,4 km/h (1 Bft) S 0,00 h 6,0 C 9,4 C 6,4 km/h (2 Bft)
10.03.2023 07:00 10,0 C 8,0 C -39,6 C 10,1 C 10,1 C 0,1 C 78 % 79 % 991,0 hPa 0,0 l/m 4,5 km/h (1 Bft) O 0,00 h 6,3 C 10,0 C 7,8 km/h (2 Bft)
10.03.2023 08:00 10,3 C 8,1 C -39,6 C 10,9 C 10,8 C 0,6 C 79 % 79 % 990,9 hPa 0,0 l/m 6,4 km/h (2 Bft) S 0,00 h 6,8 C 10,6 C 11,9 km/h (2 Bft)
10.03.2023 09:00 11,1 C 8,2 C -39,6 C 12,6 C 12,6 C 1,5 C 77 % 79 % 991,5 hPa 0,0 l/m 5,8 km/h (2 Bft) O-SO 0,00 h 7,2 C 12,6 C 10,5 km/h (2 Bft)
10.03.2023 10:00 11,8 C 8,3 C -39,6 C 13,7 C 13,7 C 2,0 C 74 % 79 % 991,6 hPa 0,0 l/m 6,3 km/h (2 Bft) S 0,00 h 7,3 C 13,7 C 9,4 km/h (2 Bft)
10.03.2023 11:00 12,4 C 8,5 C -39,6 C 14,7 C 14,7 C 2,3 C 70 % 79 % 991,7 hPa 0,0 l/m 7,9 km/h (2 Bft) S 0,08 h 7,1 C 14,7 C 10,9 km/h (2 Bft)
10.03.2023 12:00 13,0 C 8,6 C -39,6 C 15,4 C 15,4 C 2,4 C 69 % 79 % 991,7 hPa 0,0 l/m 5,2 km/h (1 Bft) S 0,08 h 7,3 C 15,4 C 8,0 km/h (2 Bft)
10.03.2023 13:00 13,2 C 8,8 C -39,6 C 14,8 C 14,6 C 1,6 C 67 % 79 % 990,9 hPa 0,0 l/m 8,8 km/h (2 Bft) SW 0,00 h 7,1 C 14,6 C 10,6 km/h (2 Bft)
10.03.2023 14:00 12,5 C 9,0 C -27,4 C 13,5 C 13,4 C 1,0 C 67 % 55 % 990,8 hPa 0,0 l/m 5,1 km/h (1 Bft) SW 0,00 h 6,6 C 13,4 C 6,9 km/h (2 Bft)
10.03.2023 15:00 9,8 C 9,3 C 0,0 C 10,1 C 9,7 C 0,5 C 79 % 0 % 991,3 hPa 0,0 l/m 2,8 km/h (1 Bft) S 0,00 h 6,4 C 9,7 C 6,7 km/h (2 Bft)
10.03.2023 16:00 10,7 C 9,2 C 0,0 C 12,3 C 12,3 C 1,6 C 76 % 0 % 991,0 hPa 0,0 l/m 3,6 km/h (1 Bft) NO 0,08 h 6,7 C 12,3 C 7,2 km/h (2 Bft)
10.03.2023 17:00 10,4 C 9,3 C 0,0 C 10,8 C 10,8 C 0,4 C 74 % 0 % 990,5 hPa 0,0 l/m 4,1 km/h (1 Bft) S-SO 0,00 h 6,1 C 10,8 C 7,2 km/h (2 Bft)
10.03.2023 18:00 9,5 C 9,4 C 0,0 C 9,3 C 8,9 C 0,0 C 75 % 0 % 990,4 hPa 0,0 l/m 3,0 km/h (1 Bft) SO 0,00 h 5,3 C 8,9 C 4,9 km/h (1 Bft)
10.03.2023 19:00 8,9 C 9,4 C 0,0 C 8,8 C 8,6 C 0,0 C 79 % 0 % 990,3 hPa 0,0 l/m 4,0 km/h (1 Bft) O-SO 0,00 h 5,3 C 8,5 C 7,2 km/h (2 Bft)
10.03.2023 20:00 8,3 C 9,6 C 0,0 C 8,1 C 7,6 C 0,0 C 83 % 0 % 990,2 hPa 0,0 l/m 3,3 km/h (1 Bft) S-SO 0,00 h 5,5 C 7,6 C 8,4 km/h (2 Bft)
10.03.2023 21:00 7,3 C 9,7 C 0,0 C 6,8 C 5,6 C 0,0 C 84 % 0 % 990,2 hPa 1,4 l/m 5,5 km/h (1 Bft) SW 0,00 h 4,7 C 4,7 C 8,8 km/h (2 Bft)
10.03.2023 22:00 6,3 C 9,9 C 0,0 C 5,7 C 4,4 C 0,0 C 86 % 0 % 990,6 hPa 2,7 l/m 6,0 km/h (2 Bft) O-NO 0,00 h 4,1 C 3,1 C 7,4 km/h (2 Bft)
10.03.2023 23:00 5,6 C 9,8 C 0,0 C 4,8 C 2,4 C 0,0 C 86 % 0 % 990,8 hPa 1,4 l/m 11,2 km/h (2 Bft) SW 0,00 h 3,4 C -0,6 C 16,4 km/h (3 Bft)
11.03.2023 00:00 2,9 C 9,6 C 0,0 C 1,5 C -2,8 C 0,0 C 84 % 0 % 992,2 hPa 0,7 l/m 18,9 km/h (3 Bft) S 0,00 h 0,5 C -8,5 C 23,3 km/h (4 Bft)
11.03.2023 01:00 1,2 C 9,5 C 0,0 C -0,1 C -3,8 C 0,0 C 87 % 0 % 994,2 hPa 0,7 l/m 14,4 km/h (3 Bft) S-SW 0,00 h -0,7 C -9,0 C 20,6 km/h (4 Bft)
11.03.2023 02:00 0,6 C 9,1 C 0,0 C -0,5 C -3,7 C 0,0 C 88 % 0 % 995,8 hPa 0,0 l/m 12,3 km/h (3 Bft) SW 0,00 h -1,2 C -8,4 C 15,6 km/h (3 Bft)
11.03.2023 03:00 -0,1 C 8,9 C 0,0 C -0,9 C -3,6 C 0,0 C 89 % 0 % 997,2 hPa 0,0 l/m 11,3 km/h (2 Bft) W-SW 0,00 h -1,7 C -7,9 C 14,7 km/h (3 Bft)
11.03.2023 04:00 -0,6 C 8,6 C 0,0 C -1,2 C -3,6 C 0,0 C 88 % 0 % 998,9 hPa 0,0 l/m 10,5 km/h (2 Bft) SW 0,00 h -2,3 C -7,8 C 13,1 km/h (3 Bft)
11.03.2023 05:00 -0,9 C 8,4 C 0,0 C -1,5 C -2,8 C 0,0 C 88 % 0 % 1000,8 hPa 0,0 l/m 7,2 km/h (2 Bft) SW 0,00 h -2,6 C -5,7 C 10,0 km/h (2 Bft)
11.03.2023 06:00 -1,0 C 8,1 C 0,0 C -1,4 C -2,2 C 0,0 C 89 % 0 % 1002,3 hPa 0,0 l/m 5,7 km/h (1 Bft) SW 0,00 h -2,7 C -4,3 C 7,9 km/h (2 Bft)
11.03.2023 07:00 -1,1 C 7,9 C 0,0 C -1,2 C -1,6 C 0,0 C 89 % 0 % 1003,1 hPa 0,0 l/m 4,7 km/h (1 Bft) SW 0,00 h -2,7 C -2,6 C 6,6 km/h (2 Bft)
11.03.2023 08:00 -1,0 C 7,7 C 0,0 C -0,3 C -0,3 C 0,7 C 89 % 0 % 1004,3 hPa 0,0 l/m 2,8 km/h (1 Bft) SW 0,00 h -2,6 C -0,3 C 4,1 km/h (1 Bft)
11.03.2023 09:00 -0,8 C 7,6 C 0,0 C 0,3 C 0,3 C 1,1 C 89 % 0 % 1005,3 hPa 0,0 l/m 2,9 km/h (1 Bft) SW 0,00 h -2,4 C 0,3 C 4,5 km/h (1 Bft)
11.03.2023 10:00 -0,7 C 7,5 C 0,0 C 1,3 C 1,3 C 2,0 C 89 % 0 % 1006,5 hPa 0,0 l/m 1,9 km/h (1 Bft) SW 0,00 h -2,3 C 1,3 C 4,0 km/h (1 Bft)
11.03.2023 11:00 -0,5 C 7,2 C 0,0 C 2,1 C 2,1 C 2,7 C 89 % 0 % 1007,6 hPa 0,0 l/m 1,4 km/h (1 Bft) SW 0,15 h -2,1 C 2,1 C 2,5 km/h (1 Bft)
11.03.2023 12:00 -0,2 C 7,1 C 0,0 C 3,3 C 3,3 C 3,5 C 89 % 0 % 1008,0 hPa 0,7 l/m 0,7 km/h (0 Bft) N 0,67 h -1,8 C 3,3 C 3,1 km/h (1 Bft)
11.03.2023 13:00 0,5 C 6,9 C 0,0 C 3,8 C 3,8 C 3,3 C 89 % 0 % 1008,7 hPa 0,7 l/m 0,9 km/h (0 Bft) W-SW 0,50 h -1,1 C 3,8 C 2,8 km/h (1 Bft)
11.03.2023 14:00 1,0 C 6,9 C 0,0 C 3,8 C 3,8 C 2,8 C 89 % 0 % 1009,1 hPa 0,0 l/m 0,9 km/h (0 Bft) S 0,00 h -0,6 C 3,8 C 2,1 km/h (1 Bft)
11.03.2023 15:00 1,1 C 6,8 C 0,0 C 3,5 C 3,5 C 2,4 C 88 % 0 % 1009,4 hPa 0,0 l/m 0,7 km/h (0 Bft) SW 0,00 h -0,7 C 3,5 C 1,7 km/h (1 Bft)
11.03.2023 16:00 1,1 C 6,8 C 1,4 C 3,3 C 3,3 C 2,2 C 88 % 4 % 1010,1 hPa 0,0 l/m 0,9 km/h (0 Bft) W 0,48 h -0,7 C 3,3 C 1,1 km/h (1 Bft)
11.03.2023 17:00 0,9 C 6,7 C 1,6 C 1,8 C 1,8 C 1,0 C 87 % 31 % 1010,6 hPa 0,0 l/m 0,3 km/h (0 Bft) SW 0,67 h -1,1 C 1,8 C 0,4 km/h (0 Bft)
11.03.2023 18:00 0,2 C 6,8 C -1,0 C -0,2 C -1,0 C 0,0 C 86 % 37 % 1011,4 hPa 0,0 l/m 0,0 km/h (0 Bft) N 0,00 h -1,9 C -1,0 C 0,0 km/h (0 Bft)
11.03.2023 19:00 -0,8 C 7,0 C -2,4 C -1,5 C -2,9 C 0,0 C 86 % 42 % 1012,4 hPa 0,0 l/m 0,0 km/h (0 Bft) N 0,00 h -2,8 C -2,9 C 0,0 km/h (0 Bft)
11.03.2023 20:00 -1,7 C 7,0 C -3,3 C -2,3 C -3,7 C 0,0 C 86 % 46 % 1013,1 hPa 0,0 l/m 0,0 km/h (0 Bft) N 0,00 h -3,7 C -3,7 C 0,0 km/h (0 Bft)
11.03.2023 21:00 -2,1 C 7,1 C -3,7 C -2,6 C -3,8 C 0,0 C 87 % 48 % 1013,6 hPa 0,0 l/m 0,0 km/h (0 Bft) N 0,00 h -3,9 C -3,8 C 0,0 km/h (0 Bft)
11.03.2023 22:00 -2,3 C 7,0 C -4,1 C -2,9 C -4,1 C 0,0 C 87 % 53 % 1013,7 hPa 0,0 l/m 0,0 km/h (0 Bft) N 0,00 h -4,2 C -4,1 C 0,0 km/h (0 Bft)
11.03.2023 23:00 -2,5 C 6,9 C -4,0 C -3,0 C -4,1 C 0,0 C 88 % 55 % 1014,0 hPa 0,0 l/m 0,0 km/h (0 Bft) N 0,00 h -4,2 C -4,1 C 0,0 km/h (0 Bft)
12.03.2023 00:00 -2,6 C 6,8 C -4,2 C -3,2 C -4,3 C 0,0 C 88 % 54 % 1014,0 hPa 0,0 l/m 0,0 km/h (0 Bft) N 0,00 h -4,3 C -4,3 C 0,0 km/h (0 Bft)
12.03.2023 01:00 -2,7 C 6,8 C -4,5 C -3,3 C -4,5 C 0,0 C 88 % 56 % 1014,2 hPa 0,0 l/m 0,0 km/h (0 Bft) N 0,00 h -4,4 C -4,5 C 0,0 km/h (0 Bft)
12.03.2023 02:00 -3,0 C 6,7 C -4,8 C -3,6 C -4,9 C 0,0 C 87 % 55 % 1014,3 hPa 0,0 l/m 0,0 km/h (0 Bft) N 0,00 h -4,8 C -4,9 C 0,0 km/h (0 Bft)
12.03.2023 03:00 -3,1 C 6,6 C -4,9 C -3,7 C -4,9 C 0,0 C 87 % 56 % 1014,2 hPa 0,0 l/m 0,0 km/h (0 Bft) N 0,00 h -5,0 C -4,9 C 0,0 km/h (0 Bft)
12.03.2023 04:00 -3,3 C 6,6 C -4,8 C -3,8 C -5,0 C 0,0 C 87 % 53 % 1014,2 hPa 0,0 l/m 0,0 km/h (0 Bft) N 0,00 h -5,1 C -5,0 C 0,0 km/h (0 Bft)
12.03.2023 05:00 -3,1 C 6,4 C -4,5 C -3,6 C -4,7 C 0,0 C 87 % 57 % 1014,3 hPa 0,0 l/m 0,1 km/h (0 Bft) N 0,00 h -4,9 C -4,7 C 0,9 km/h (0 Bft)
12.03.2023 06:00 -3,3 C 6,3 C -4,9 C -3,8 C -4,8 C 0,0 C 86 % 56 % 1014,4 hPa 0,0 l/m 0,0 km/h (0 Bft) N 0,00 h -5,3 C -4,8 C 0,4 km/h (0 Bft)
12.03.2023 07:00 -3,1 C 6,4 C -4,9 C -1,7 C -1,9 C 1,5 C 86 % 53 % 1014,2 hPa 0,0 l/m 0,0 km/h (0 Bft) N 0,42 h -5,0 C -1,9 C 0,0 km/h (0 Bft)
12.03.2023 08:00 -0,9 C 6,1 C -0,2 C 1,9 C 1,9 C 2,9 C 86 % 50 % 1014,3 hPa 0,0 l/m 0,0 km/h (0 Bft) N 0,62 h -2,9 C 1,9 C 0,0 km/h (0 Bft)
12.03.2023 09:00 0,8 C 6,0 C 0,8 C 4,1 C 4,1 C 3,3 C 80 % 44 % 1014,2 hPa 0,0 l/m 0,1 km/h (0 Bft) N 0,67 h -2,3 C 4,1 C 0,6 km/h (0 Bft)
12.03.2023 10:00 2,4 C 5,9 C 2,3 C 5,9 C 5,9 C 3,5 C 72 % 41 % 1014,1 hPa 0,0 l/m 0,7 km/h (0 Bft) SW 0,83 h -2,1 C 5,9 C 0,5 km/h (0 Bft)
12.03.2023 11:00 3,5 C 5,9 C 4,1 C 7,7 C 7,7 C 4,2 C 68 % 38 % 1013,6 hPa 0,0 l/m 1,4 km/h (1 Bft) S-SO 1,00 h -1,9 C 7,7 C 3,4 km/h (1 Bft)
12.03.2023 12:00 4,8 C 6,0 C 5,3 C 8,9 C 8,9 C 4,1 C 64 % 37 % 1013,5 hPa 0,0 l/m 1,1 km/h (0 Bft) O-SO 1,00 h -1,4 C 8,9 C 2,2 km/h (1 Bft)
12.03.2023 13:00 5,7 C 5,9 C 6,0 C 8,7 C 8,7 C 3,0 C 59 % 36 % 1012,6 hPa 0,0 l/m 2,5 km/h (1 Bft) S-SO 0,42 h -1,6 C 8,7 C 6,0 km/h (2 Bft)
12.03.2023 14:00 5,3 C 6,1 C 5,0 C 6,4 C 6,4 C 1,1 C 62 % 39 % 1011,8 hPa 0,0 l/m 2,7 km/h (1 Bft) W-SW 0,00 h -1,3 C 6,4 C 7,6 km/h (2 Bft)
12.03.2023 15:00 4,5 C 6,1 C 4,1 C 4,9 C 4,8 C 0,4 C 71 % 52 % 1011,5 hPa 0,0 l/m 1,4 km/h (1 Bft) S-SO 0,00 h -0,2 C 4,8 C 2,6 km/h (1 Bft)
12.03.2023 16:00 4,8 C 6,2 C 4,6 C 5,4 C 5,4 C 0,6 C 76 % 56 % 1011,2 hPa 0,0 l/m 2,2 km/h (1 Bft) O 0,00 h 1,0 C 5,4 C 4,9 km/h (1 Bft)
12.03.2023 17:00 5,2 C 6,4 C 5,0 C 5,7 C 5,7 C 0,4 C 80 % 59 % 1010,7 hPa 0,0 l/m 1,9 km/h (1 Bft) SW 0,17 h 2,0 C 5,7 C 3,4 km/h (1 Bft)
12.03.2023 18:00 5,5 C 6,5 C 5,3 C 5,9 C 5,9 C 0,3 C 81 % 62 % 1010,9 hPa 0,0 l/m 2,6 km/h (1 Bft) S-SO 0,00 h 2,5 C 5,9 C 7,4 km/h (2 Bft)
12.03.2023 19:00 6,0 C 6,6 C 5,7 C 6,2 C 6,2 C 0,3 C 82 % 64 % 1011,2 hPa 0,0 l/m 2,8 km/h (1 Bft) S 0,00 h 3,1 C 6,2 C 3,4 km/h (1 Bft)
12.03.2023 20:00 6,3 C 6,7 C 6,1 C 6,4 C 6,4 C 0,1 C 83 % 65 % 1011,1 hPa 0,0 l/m 2,4 km/h (1 Bft) SO 0,00 h 3,7 C 6,3 C 3,1 km/h (1 Bft)
12.03.2023 21:00 6,5 C 6,9 C 6,3 C 6,6 C 6,6 C 0,1 C 83 % 66 % 1011,4 hPa 0,0 l/m 1,3 km/h (1 Bft) O-SO 0,00 h 3,9 C 6,6 C 3,1 km/h (1 Bft)
12.03.2023 22:00 6,8 C 6,9 C 6,6 C 6,9 C 6,9 C 0,1 C 84 % 67 % 1011,5 hPa 0,0 l/m 1,4 km/h (1 Bft) NO 0,00 h 4,3 C 6,9 C 2,3 km/h (1 Bft)
12.03.2023 23:00 7,4 C 7,0 C 7,4 C 7,6 C 7,6 C 0,2 C 84 % 66 % 1011,0 hPa 0,0 l/m 2,2 km/h (1 Bft) S 0,00 h 4,8 C 7,6 C 3,1 km/h (1 Bft)
Min-Datum _ 12.03.23 06.03.23 06.03.23 12.03.23 12.03.23 06.03.23 12.03.23 06.03.23 10.03.23 - 06.03.23 - - 12.03.23 11.03.23 06.03.23
_ Min-Zeit 07:05 09:55 00:00 06:55 04:11 00:00 13:40 04:16 18:42 - 07:15 - - 07:05 01:05 00:05
Minimum _ -3,6 C 5,2 C -39,6 C -4,0 C -5,2 C 0,0 C 58 % 0 % 990,0 hPa - 0,0 km/h (0 Bft) - - -5,6 C -10,3 C 0,0 km/h (0 Bft)
Max-Datum _ 10.03.23 10.03.23 11.03.23 10.03.23 10.03.23 12.03.23 09.03.23 07.03.23 12.03.23 08.03.23 11.03.23 - 12.03.23 10.03.23 10.03.23 10.03.23
_ Max-Zeit 14:15 21:40 16:50 12:25 12:25 12:35 11:05 00:31 05:00 14:05 00:05 - 08:19 12:20 12:25 23:55
Maximum _ 13,5 C 9,9 C 8,9 C 16,6 C 16,6 C 4,9 C 90 % 82 % 1014,6 hPa 4,1 l/m 21,7 km/h
S (4 Bft)
- 0,12 h 7,7 C 16,6 C 38,9 km/h
SW (6 Bft)
Durchschnitt _ 2,8 C 6,7 C -25,5 C 3,4 C 3,0 C 0,8 C 84 % 59 % 1001,5 hPa #28,2 l/m 2,6 km/h (1 Bft) SW #11:20 h 0,2 C 2,7 C 4,2 km/h (1 Bft)
2023 www.wetterstation-wechselburg.de